VHBNZ YBAF-YGDI
Flight info
| Callsign | VHBNZ |
|---|---|
| Flight time | 1h 3m |
| Altitude | 6500 |
| Route | YBOA YWCK |
| Aircraft | BE36/L-VGDW/C |
Departure
| Time | 2026-05-06 06:03 |
|---|---|
| Airport | Brisbane Archerfield Airport (YBAF) |
Arrival
| Time | 2026-05-06 07:07 |
|---|---|
| Airport | Goondiwindi Airport (YGDI) |
| Time | Latitude | Longitude | Altitude | Speed | Heading |
|---|---|---|---|---|---|
| 2026-05-06 05:56 | -27.57300 | 153.01161 | 62 ft | 0 kts | 280° |
| 2026-05-06 05:57 | -27.57299 | 153.01157 | 62 ft | 0 kts | 279° |
| 2026-05-06 05:58 | -27.57303 | 153.01135 | 61 ft | 8 kts | 237° |
| 2026-05-06 05:59 | -27.57335 | 153.01089 | 61 ft | 9 kts | 273° |
| 2026-05-06 05:59 | -27.57314 | 153.01009 | 57 ft | 12 kts | 288° |
| 2026-05-06 05:59 | -27.57287 | 153.00913 | 57 ft | 14 kts | 288° |
| 2026-05-06 05:59 | -27.57256 | 153.00804 | 56 ft | 16 kts | 287° |
| 2026-05-06 06:00 | -27.57219 | 153.00678 | 52 ft | 18 kts | 290° |
| 2026-05-06 06:00 | -27.57180 | 153.00537 | 48 ft | 21 kts | 285° |
| 2026-05-06 06:00 | -27.57135 | 153.00378 | 44 ft | 20 kts | 286° |
| 2026-05-06 06:00 | -27.57095 | 153.00237 | 42 ft | 19 kts | 288° |
| 2026-05-06 06:01 | -27.57053 | 153.00095 | 43 ft | 19 kts | 287° |
| 2026-05-06 06:01 | -27.57011 | 152.99950 | 39 ft | 19 kts | 288° |
| 2026-05-06 06:01 | -27.56993 | 152.99852 | 38 ft | 4 kts | 207° |
| 2026-05-06 06:01 | -27.57032 | 152.99837 | 39 ft | 10 kts | 197° |
| 2026-05-06 06:02 | -27.57068 | 152.99843 | 39 ft | 0 kts | 106° |
| 2026-05-06 06:02 | -27.57071 | 152.99852 | 39 ft | 13 kts | 108° |
| 2026-05-06 06:02 | -27.57166 | 153.00188 | 46 ft | 73 kts | 106° |
| 2026-05-06 06:03 | -27.57356 | 153.00831 | 204 ft | 94 kts | 108° |
| 2026-05-06 06:03 | -27.57553 | 153.01563 | 471 ft | 106 kts | 105° |
| 2026-05-06 06:03 | -27.57926 | 153.02264 | 732 ft | 112 kts | 157° |
| 2026-05-06 06:03 | -27.58590 | 153.02688 | 977 ft | 120 kts | 145° |
| 2026-05-06 06:04 | -27.59360 | 153.03250 | 989 ft | 143 kts | 146° |
| 2026-05-06 06:04 | -27.60238 | 153.03899 | 1000 ft | 158 kts | 146° |
| 2026-05-06 06:04 | -27.61176 | 153.04589 | 1011 ft | 163 kts | 146° |
| 2026-05-06 06:04 | -27.62122 | 153.05290 | 1016 ft | 166 kts | 146° |
| 2026-05-06 06:05 | -27.63095 | 153.06012 | 1004 ft | 168 kts | 146° |
| 2026-05-06 06:05 | -27.64172 | 153.06435 | 1009 ft | 166 kts | 182° |
| 2026-05-06 06:05 | -27.65230 | 153.05929 | 1012 ft | 169 kts | 212° |
| 2026-05-06 06:05 | -27.66189 | 153.05161 | 1053 ft | 167 kts | 213° |
| 2026-05-06 06:06 | -27.67073 | 153.04442 | 1405 ft | 144 kts | 212° |
| 2026-05-06 06:06 | -27.67813 | 153.03822 | 1883 ft | 121 kts | 212° |
| 2026-05-06 06:06 | -27.68441 | 153.03281 | 2276 ft | 111 kts | 212° |
| 2026-05-06 06:06 | -27.69067 | 153.02743 | 2496 ft | 119 kts | 212° |
| 2026-05-06 06:07 | -27.69786 | 153.02137 | 2514 ft | 137 kts | 211° |
| 2026-05-06 06:07 | -27.70627 | 153.01526 | 2520 ft | 149 kts | 209° |
| 2026-05-06 06:07 | -27.71533 | 153.00887 | 2516 ft | 157 kts | 210° |
| 2026-05-06 06:07 | -27.72475 | 153.00228 | 2518 ft | 161 kts | 209° |
| 2026-05-06 06:08 | -27.73431 | 152.99554 | 2509 ft | 162 kts | 209° |
| 2026-05-06 06:08 | -27.74393 | 152.98875 | 2517 ft | 164 kts | 209° |
| 2026-05-06 06:08 | -27.75373 | 152.98187 | 2518 ft | 167 kts | 208° |
| 2026-05-06 06:08 | -27.76365 | 152.97487 | 2518 ft | 169 kts | 209° |
| 2026-05-06 06:09 | -27.77357 | 152.96797 | 2510 ft | 170 kts | 209° |
| 2026-05-06 06:09 | -27.78364 | 152.96097 | 2518 ft | 170 kts | 208° |
| 2026-05-06 06:09 | -27.79369 | 152.95400 | 2508 ft | 169 kts | 209° |
| 2026-05-06 06:09 | -27.80374 | 152.94704 | 2510 ft | 169 kts | 208° |
| 2026-05-06 06:10 | -27.81383 | 152.93999 | 2516 ft | 173 kts | 209° |
| 2026-05-06 06:10 | -27.82419 | 152.93280 | 2509 ft | 175 kts | 209° |
| 2026-05-06 06:10 | -27.83455 | 152.92562 | 2513 ft | 174 kts | 208° |
| 2026-05-06 06:10 | -27.84486 | 152.91845 | 2511 ft | 173 kts | 209° |
| 2026-05-06 06:11 | -27.85510 | 152.91130 | 2513 ft | 175 kts | 209° |
| 2026-05-06 06:11 | -27.86486 | 152.90295 | 2511 ft | 181 kts | 229° |
| 2026-05-06 06:11 | -27.87158 | 152.89079 | 2509 ft | 183 kts | 238° |
| 2026-05-06 06:11 | -27.87802 | 152.87831 | 2516 ft | 184 kts | 238° |
| 2026-05-06 06:12 | -27.88437 | 152.86585 | 2514 ft | 182 kts | 237° |
| 2026-05-06 06:12 | -27.89068 | 152.85342 | 2524 ft | 183 kts | 238° |
| 2026-05-06 06:12 | -27.89700 | 152.84100 | 2619 ft | 181 kts | 238° |
| 2026-05-06 06:12 | -27.90323 | 152.82901 | 2880 ft | 169 kts | 238° |
| 2026-05-06 06:13 | -27.90886 | 152.81798 | 3250 ft | 160 kts | 238° |
| 2026-05-06 06:13 | -27.91451 | 152.80706 | 3450 ft | 161 kts | 238° |
| 2026-05-06 06:13 | -27.92059 | 152.79643 | 3643 ft | 160 kts | 230° |
| 2026-05-06 06:13 | -27.92783 | 152.78688 | 3827 ft | 160 kts | 228° |
| 2026-05-06 06:14 | -27.93517 | 152.77740 | 4011 ft | 160 kts | 228° |
| 2026-05-06 06:14 | -27.94255 | 152.76801 | 4178 ft | 160 kts | 228° |
| 2026-05-06 06:14 | -27.94999 | 152.75866 | 4342 ft | 160 kts | 228° |
| 2026-05-06 06:14 | -27.95748 | 152.74935 | 4491 ft | 160 kts | 228° |
| 2026-05-06 06:15 | -27.96515 | 152.73985 | 4516 ft | 167 kts | 228° |
| 2026-05-06 06:15 | -27.97311 | 152.73001 | 4526 ft | 171 kts | 228° |
| 2026-05-06 06:15 | -27.98123 | 152.72002 | 4530 ft | 174 kts | 228° |
| 2026-05-06 06:15 | -27.98944 | 152.70994 | 4529 ft | 175 kts | 228° |
| 2026-05-06 06:16 | -27.99760 | 152.69994 | 4533 ft | 175 kts | 228° |
| 2026-05-06 06:16 | -28.00593 | 152.68980 | 4528 ft | 176 kts | 228° |
| 2026-05-06 06:16 | -28.01219 | 152.67823 | 4527 ft | 173 kts | 255° |
| 2026-05-06 06:16 | -28.01494 | 152.66493 | 4530 ft | 173 kts | 258° |
| 2026-05-06 06:17 | -28.01755 | 152.65163 | 4531 ft | 173 kts | 258° |
| 2026-05-06 06:17 | -28.02016 | 152.63826 | 4534 ft | 174 kts | 258° |
| 2026-05-06 06:17 | -28.02281 | 152.62484 | 4532 ft | 174 kts | 258° |
| 2026-05-06 06:17 | -28.02547 | 152.61143 | 4528 ft | 174 kts | 258° |
| 2026-05-06 06:18 | -28.02815 | 152.59806 | 4530 ft | 174 kts | 258° |
| 2026-05-06 06:18 | -28.03082 | 152.58473 | 4534 ft | 174 kts | 258° |
| 2026-05-06 06:18 | -28.03348 | 152.57139 | 4532 ft | 174 kts | 258° |
| 2026-05-06 06:18 | -28.03615 | 152.55801 | 4538 ft | 174 kts | 258° |
| 2026-05-06 06:19 | -28.03879 | 152.54461 | 4535 ft | 174 kts | 258° |
| 2026-05-06 06:19 | -28.04142 | 152.53137 | 4535 ft | 175 kts | 258° |
| 2026-05-06 06:19 | -28.04410 | 152.51791 | 4534 ft | 175 kts | 258° |
| 2026-05-06 06:19 | -28.04674 | 152.50452 | 4534 ft | 175 kts | 258° |
| 2026-05-06 06:20 | -28.04938 | 152.49107 | 4540 ft | 175 kts | 258° |
| 2026-05-06 06:20 | -28.05204 | 152.47755 | 4535 ft | 176 kts | 258° |
| 2026-05-06 06:20 | -28.05468 | 152.46409 | 4533 ft | 175 kts | 258° |
| 2026-05-06 06:20 | -28.05730 | 152.45064 | 4534 ft | 175 kts | 258° |
| 2026-05-06 06:21 | -28.05993 | 152.43720 | 4526 ft | 175 kts | 258° |
| 2026-05-06 06:21 | -28.06253 | 152.42382 | 4530 ft | 174 kts | 258° |
| 2026-05-06 06:21 | -28.06513 | 152.41043 | 4531 ft | 175 kts | 258° |
| 2026-05-06 06:21 | -28.06772 | 152.39697 | 4534 ft | 175 kts | 258° |
| 2026-05-06 06:22 | -28.07034 | 152.38347 | 4532 ft | 175 kts | 258° |
| 2026-05-06 06:22 | -28.07294 | 152.37019 | 4533 ft | 175 kts | 258° |
| 2026-05-06 06:22 | -28.07557 | 152.35676 | 4530 ft | 175 kts | 258° |
| 2026-05-06 06:22 | -28.07820 | 152.34313 | 4534 ft | 175 kts | 258° |
| 2026-05-06 06:23 | -28.08081 | 152.32962 | 4539 ft | 176 kts | 258° |
| 2026-05-06 06:23 | -28.08340 | 152.31611 | 4532 ft | 180 kts | 258° |
| 2026-05-06 06:23 | -28.08607 | 152.30224 | 4531 ft | 180 kts | 258° |
| 2026-05-06 06:23 | -28.08881 | 152.28833 | 4529 ft | 181 kts | 258° |
| 2026-05-06 06:24 | -28.09152 | 152.27453 | 4530 ft | 178 kts | 258° |
| 2026-05-06 06:24 | -28.09420 | 152.26085 | 4531 ft | 177 kts | 258° |
| 2026-05-06 06:24 | -28.09687 | 152.24732 | 4529 ft | 175 kts | 258° |
| 2026-05-06 06:24 | -28.09953 | 152.23388 | 4532 ft | 174 kts | 258° |
| 2026-05-06 06:25 | -28.10216 | 152.22057 | 4521 ft | 173 kts | 258° |
| 2026-05-06 06:25 | -28.10479 | 152.20728 | 4520 ft | 173 kts | 258° |
| 2026-05-06 06:25 | -28.10986 | 152.18115 | 4699 ft | 167 kts | 258° |
| 2026-05-06 06:26 | -28.11240 | 152.16824 | 4824 ft | 165 kts | 258° |
| 2026-05-06 06:26 | -28.11488 | 152.15584 | 4942 ft | 163 kts | 258° |
| 2026-05-06 06:26 | -28.11740 | 152.14342 | 5056 ft | 161 kts | 258° |
| 2026-05-06 06:26 | -28.11992 | 152.13114 | 5179 ft | 159 kts | 258° |
| 2026-05-06 06:27 | -28.12237 | 152.11897 | 5296 ft | 158 kts | 258° |
| 2026-05-06 06:27 | -28.12481 | 152.10685 | 5418 ft | 158 kts | 258° |
| 2026-05-06 06:27 | -28.12727 | 152.09470 | 5543 ft | 158 kts | 258° |
| 2026-05-06 06:27 | -28.12972 | 152.08256 | 5663 ft | 158 kts | 258° |
| 2026-05-06 06:28 | -28.13217 | 152.07044 | 5785 ft | 158 kts | 258° |
| 2026-05-06 06:28 | -28.13462 | 152.05833 | 5903 ft | 157 kts | 258° |
| 2026-05-06 06:28 | -28.13704 | 152.04631 | 6031 ft | 156 kts | 258° |
| 2026-05-06 06:28 | -28.13947 | 152.03435 | 6154 ft | 155 kts | 258° |
| 2026-05-06 06:29 | -28.14188 | 152.02246 | 6278 ft | 154 kts | 258° |
| 2026-05-06 06:29 | -28.14426 | 152.01077 | 6401 ft | 154 kts | 258° |
| 2026-05-06 06:29 | -28.14667 | 151.99900 | 6512 ft | 153 kts | 258° |
| 2026-05-06 06:29 | -28.14913 | 151.98698 | 6521 ft | 160 kts | 258° |
| 2026-05-06 06:30 | -28.15167 | 151.97453 | 6526 ft | 164 kts | 258° |
| 2026-05-06 06:30 | -28.15446 | 151.96230 | 6745 ft | 151 kts | 246° |
| 2026-05-06 06:30 | -28.16045 | 151.95364 | 7224 ft | 129 kts | 231° |
| 2026-05-06 06:30 | -28.16598 | 151.94685 | 7723 ft | 108 kts | 231° |
| 2026-05-06 06:31 | -28.17107 | 151.94077 | 8009 ft | 107 kts | 230° |
| 2026-05-06 06:31 | -28.17361 | 151.93616 | 8169 ft | 104 kts | 255° |
| 2026-05-06 06:31 | -28.17648 | 151.92571 | 8516 ft | 103 kts | 255° |
| 2026-05-06 06:31 | -28.17797 | 151.92059 | 8684 ft | 103 kts | 254° |
| 2026-05-06 06:32 | -28.18024 | 151.91289 | 8934 ft | 103 kts | 254° |
| 2026-05-06 06:32 | -28.18251 | 151.90515 | 9192 ft | 103 kts | 255° |
| 2026-05-06 06:32 | -28.18478 | 151.89745 | 9440 ft | 103 kts | 255° |
| 2026-05-06 06:32 | -28.18710 | 151.88974 | 9678 ft | 103 kts | 255° |
| 2026-05-06 06:33 | -28.18945 | 151.88205 | 9922 ft | 103 kts | 254° |
| 2026-05-06 06:33 | -28.19179 | 151.87437 | 10144 ft | 103 kts | 255° |
| 2026-05-06 06:33 | -28.19414 | 151.86670 | 10349 ft | 103 kts | 255° |
| 2026-05-06 06:33 | -28.19875 | 151.86050 | 10536 ft | 114 kts | 210° |
| 2026-05-06 06:34 | -28.20615 | 151.85711 | 10719 ft | 115 kts | 211° |
| 2026-05-06 06:34 | -28.21352 | 151.85358 | 10909 ft | 116 kts | 211° |
| 2026-05-06 06:34 | -28.22088 | 151.85009 | 11095 ft | 116 kts | 211° |
| 2026-05-06 06:34 | -28.22585 | 151.84403 | 11267 ft | 104 kts | 257° |
| 2026-05-06 06:35 | -28.22819 | 151.83621 | 11423 ft | 105 kts | 255° |
| 2026-05-06 06:35 | -28.23063 | 151.82834 | 11599 ft | 106 kts | 256° |
| 2026-05-06 06:35 | -28.23307 | 151.82049 | 11789 ft | 106 kts | 256° |
| 2026-05-06 06:35 | -28.23427 | 151.81238 | 11957 ft | 104 kts | 271° |
| 2026-05-06 06:36 | -28.23456 | 151.80417 | 12123 ft | 104 kts | 270° |
| 2026-05-06 06:36 | -28.23488 | 151.79591 | 12278 ft | 105 kts | 270° |
| 2026-05-06 06:36 | -28.23521 | 151.78764 | 12463 ft | 105 kts | 270° |
| 2026-05-06 06:36 | -28.23556 | 151.77929 | 12578 ft | 110 kts | 270° |
| 2026-05-06 06:37 | -28.23591 | 151.77016 | 12594 ft | 121 kts | 270° |
| 2026-05-06 06:37 | -28.23624 | 151.76023 | 12595 ft | 130 kts | 271° |
| 2026-05-06 06:37 | -28.23659 | 151.74966 | 12594 ft | 137 kts | 270° |
| 2026-05-06 06:37 | -28.23691 | 151.73869 | 12591 ft | 141 kts | 271° |
| 2026-05-06 06:38 | -28.23725 | 151.72746 | 12589 ft | 144 kts | 271° |
| 2026-05-06 06:38 | -28.23759 | 151.71603 | 12592 ft | 146 kts | 270° |
| 2026-05-06 06:38 | -28.23833 | 151.70450 | 12592 ft | 149 kts | 259° |
| 2026-05-06 06:38 | -28.24222 | 151.69350 | 12592 ft | 150 kts | 255° |
| 2026-05-06 06:39 | -28.24521 | 151.68216 | 12587 ft | 150 kts | 259° |
| 2026-05-06 06:39 | -28.24774 | 151.67083 | 12594 ft | 150 kts | 260° |
| 2026-05-06 06:39 | -28.25017 | 151.65933 | 12594 ft | 150 kts | 261° |
| 2026-05-06 06:39 | -28.25256 | 151.64782 | 12585 ft | 150 kts | 261° |
| 2026-05-06 06:40 | -28.25427 | 151.63618 | 12589 ft | 149 kts | 270° |
| 2026-05-06 06:40 | -28.25468 | 151.62445 | 12574 ft | 149 kts | 270° |
| 2026-05-06 06:40 | -28.25501 | 151.61208 | 12104 ft | 155 kts | 271° |
| 2026-05-06 06:40 | -28.25529 | 151.59921 | 11619 ft | 167 kts | 271° |
| 2026-05-06 06:41 | -28.25554 | 151.58592 | 11199 ft | 167 kts | 271° |
| 2026-05-06 06:41 | -28.25572 | 151.57211 | 10476 ft | 182 kts | 271° |
| 2026-05-06 06:41 | -28.25582 | 151.55779 | 9981 ft | 178 kts | 271° |
| 2026-05-06 06:41 | -28.25587 | 151.54385 | 9202 ft | 177 kts | 271° |
| 2026-05-06 06:42 | -28.25585 | 151.52983 | 8434 ft | 178 kts | 271° |
| 2026-05-06 06:42 | -28.25578 | 151.51585 | 7703 ft | 177 kts | 270° |
| 2026-05-06 06:42 | -28.25900 | 151.50249 | 6993 ft | 179 kts | 244° |
| 2026-05-06 06:42 | -28.26395 | 151.48962 | 6319 ft | 176 kts | 251° |
| 2026-05-06 06:43 | -28.26831 | 151.47633 | 5777 ft | 181 kts | 251° |
| 2026-05-06 06:43 | -28.27259 | 151.46329 | 5433 ft | 179 kts | 251° |
| 2026-05-06 06:43 | -28.27702 | 151.44980 | 5179 ft | 185 kts | 251° |
| 2026-05-06 06:43 | -28.28153 | 151.43610 | 4941 ft | 186 kts | 251° |
| 2026-05-06 06:44 | -28.28611 | 151.42224 | 4696 ft | 188 kts | 251° |
| 2026-05-06 06:44 | -28.29009 | 151.40817 | 4526 ft | 184 kts | 258° |
| 2026-05-06 06:44 | -28.29266 | 151.39423 | 4519 ft | 178 kts | 259° |
| 2026-05-06 06:44 | -28.29547 | 151.38071 | 4520 ft | 175 kts | 257° |
| 2026-05-06 06:45 | -28.29841 | 151.36743 | 4509 ft | 173 kts | 258° |
| 2026-05-06 06:45 | -28.30087 | 151.35406 | 4503 ft | 171 kts | 261° |
| 2026-05-06 06:45 | -28.30287 | 151.34080 | 4507 ft | 170 kts | 261° |
| 2026-05-06 06:45 | -28.30499 | 151.32758 | 4507 ft | 169 kts | 261° |
| 2026-05-06 06:46 | -28.30714 | 151.31448 | 4512 ft | 169 kts | 261° |
| 2026-05-06 06:46 | -28.30928 | 151.30138 | 4510 ft | 169 kts | 261° |
| 2026-05-06 06:46 | -28.31145 | 151.28831 | 4511 ft | 169 kts | 261° |
| 2026-05-06 06:46 | -28.31359 | 151.27526 | 4511 ft | 168 kts | 261° |
| 2026-05-06 06:47 | -28.31571 | 151.26233 | 4505 ft | 168 kts | 261° |
| 2026-05-06 06:47 | -28.31785 | 151.24925 | 4501 ft | 169 kts | 261° |
| 2026-05-06 06:47 | -28.32001 | 151.23613 | 4504 ft | 168 kts | 261° |
| 2026-05-06 06:47 | -28.32215 | 151.22303 | 4504 ft | 169 kts | 261° |
| 2026-05-06 06:48 | -28.32430 | 151.20992 | 4505 ft | 169 kts | 261° |
| 2026-05-06 06:48 | -28.32646 | 151.19673 | 4501 ft | 170 kts | 261° |
| 2026-05-06 06:48 | -28.32861 | 151.18358 | 4505 ft | 170 kts | 261° |
| 2026-05-06 06:48 | -28.33076 | 151.17039 | 4500 ft | 169 kts | 260° |
| 2026-05-06 06:49 | -28.33291 | 151.15723 | 4504 ft | 169 kts | 260° |
| 2026-05-06 06:49 | -28.33502 | 151.14426 | 4502 ft | 169 kts | 261° |
| 2026-05-06 06:49 | -28.33717 | 151.13113 | 4502 ft | 170 kts | 261° |
| 2026-05-06 06:49 | -28.33931 | 151.11797 | 4499 ft | 169 kts | 261° |
| 2026-05-06 06:50 | -28.34145 | 151.10485 | 4499 ft | 169 kts | 261° |
| 2026-05-06 06:50 | -28.34359 | 151.09173 | 4500 ft | 169 kts | 261° |
| 2026-05-06 06:50 | -28.34572 | 151.07861 | 4500 ft | 169 kts | 261° |
| 2026-05-06 06:50 | -28.34786 | 151.06546 | 4504 ft | 169 kts | 261° |
| 2026-05-06 06:51 | -28.34999 | 151.05235 | 4500 ft | 169 kts | 260° |
| 2026-05-06 06:51 | -28.35212 | 151.03921 | 4501 ft | 169 kts | 260° |
| 2026-05-06 06:51 | -28.35423 | 151.02626 | 4497 ft | 170 kts | 260° |
| 2026-05-06 06:51 | -28.35639 | 151.01289 | 4467 ft | 172 kts | 260° |
| 2026-05-06 06:52 | -28.35861 | 150.99920 | 4269 ft | 180 kts | 260° |
| 2026-05-06 06:52 | -28.36089 | 150.98508 | 4075 ft | 183 kts | 260° |
| 2026-05-06 06:52 | -28.36317 | 150.97099 | 3891 ft | 185 kts | 260° |
| 2026-05-06 06:52 | -28.36552 | 150.95657 | 3695 ft | 185 kts | 260° |
| 2026-05-06 06:53 | -28.36783 | 150.94215 | 3501 ft | 186 kts | 260° |
| 2026-05-06 06:53 | -28.37017 | 150.92764 | 3313 ft | 187 kts | 260° |
| 2026-05-06 06:53 | -28.37251 | 150.91317 | 3109 ft | 186 kts | 259° |
| 2026-05-06 06:53 | -28.37483 | 150.89874 | 2999 ft | 183 kts | 260° |
| 2026-05-06 06:54 | -28.37710 | 150.88476 | 3001 ft | 178 kts | 260° |
| 2026-05-06 06:54 | -28.37933 | 150.87096 | 2993 ft | 176 kts | 261° |
| 2026-05-06 06:54 | -28.38152 | 150.85731 | 2987 ft | 175 kts | 260° |
| 2026-05-06 06:54 | -28.38369 | 150.84379 | 2991 ft | 173 kts | 261° |
| 2026-05-06 06:55 | -28.38582 | 150.83057 | 2988 ft | 172 kts | 260° |
| 2026-05-06 06:55 | -28.38797 | 150.81720 | 2986 ft | 172 kts | 260° |
| 2026-05-06 06:55 | -28.39012 | 150.80382 | 2988 ft | 172 kts | 260° |
| 2026-05-06 06:55 | -28.39227 | 150.79042 | 2986 ft | 172 kts | 260° |
| 2026-05-06 06:56 | -28.39442 | 150.77706 | 2986 ft | 172 kts | 260° |
| 2026-05-06 06:56 | -28.39655 | 150.76369 | 2987 ft | 172 kts | 260° |
| 2026-05-06 06:56 | -28.39869 | 150.75034 | 2990 ft | 171 kts | 260° |
| 2026-05-06 06:56 | -28.40083 | 150.73699 | 2985 ft | 172 kts | 261° |
| 2026-05-06 06:57 | -28.40297 | 150.72367 | 2986 ft | 171 kts | 260° |
| 2026-05-06 06:57 | -28.40509 | 150.71030 | 2985 ft | 172 kts | 260° |
| 2026-05-06 06:57 | -28.40724 | 150.69693 | 2987 ft | 172 kts | 260° |
| 2026-05-06 06:57 | -28.40936 | 150.68353 | 2988 ft | 172 kts | 260° |
| 2026-05-06 06:58 | -28.41149 | 150.67019 | 2984 ft | 171 kts | 260° |
| 2026-05-06 06:58 | -28.41363 | 150.65690 | 2986 ft | 171 kts | 260° |
| 2026-05-06 06:58 | -28.41573 | 150.64365 | 2987 ft | 171 kts | 260° |
| 2026-05-06 06:58 | -28.41784 | 150.63036 | 2988 ft | 171 kts | 260° |
| 2026-05-06 06:59 | -28.41993 | 150.61723 | 2985 ft | 170 kts | 260° |
| 2026-05-06 06:59 | -28.42203 | 150.60403 | 2989 ft | 169 kts | 261° |
| 2026-05-06 06:59 | -28.42413 | 150.59081 | 2988 ft | 170 kts | 261° |
| 2026-05-06 06:59 | -28.42622 | 150.57765 | 2985 ft | 167 kts | 261° |
| 2026-05-06 07:00 | -28.42828 | 150.56466 | 2988 ft | 167 kts | 261° |
| 2026-05-06 07:00 | -28.43033 | 150.55172 | 2986 ft | 166 kts | 260° |
| 2026-05-06 07:00 | -28.43238 | 150.53883 | 2989 ft | 166 kts | 261° |
| 2026-05-06 07:00 | -28.43442 | 150.52598 | 2991 ft | 165 kts | 259° |
| 2026-05-06 07:01 | -28.43645 | 150.51312 | 2990 ft | 166 kts | 259° |
| 2026-05-06 07:01 | -28.43848 | 150.50033 | 2926 ft | 169 kts | 260° |
| 2026-05-06 07:01 | -28.44057 | 150.48701 | 2733 ft | 171 kts | 260° |
| 2026-05-06 07:01 | -28.44269 | 150.47360 | 2541 ft | 172 kts | 260° |
| 2026-05-06 07:02 | -28.44479 | 150.46022 | 2342 ft | 170 kts | 260° |
| 2026-05-06 07:02 | -28.44682 | 150.44738 | 2137 ft | 158 kts | 259° |
| 2026-05-06 07:02 | -28.44865 | 150.43551 | 1966 ft | 147 kts | 261° |
| 2026-05-06 07:02 | -28.45013 | 150.42462 | 1894 ft | 134 kts | 261° |
| 2026-05-06 07:03 | -28.45160 | 150.41407 | 1774 ft | 133 kts | 261° |
| 2026-05-06 07:03 | -28.45297 | 150.40388 | 1766 ft | 130 kts | 261° |
| 2026-05-06 07:03 | -28.45388 | 150.39365 | 1698 ft | 127 kts | 260° |
| 2026-05-06 07:03 | -28.45827 | 150.38559 | 1628 ft | 126 kts | 223° |
| 2026-05-06 07:04 | -28.46503 | 150.37940 | 1553 ft | 124 kts | 220° |
| 2026-05-06 07:04 | -28.47163 | 150.37301 | 1446 ft | 125 kts | 223° |
| 2026-05-06 07:04 | -28.47831 | 150.36652 | 1314 ft | 126 kts | 222° |
| 2026-05-06 07:04 | -28.48470 | 150.35999 | 1207 ft | 118 kts | 225° |
| 2026-05-06 07:05 | -28.49008 | 150.35395 | 1243 ft | 94 kts | 225° |
| 2026-05-06 07:05 | -28.49441 | 150.34925 | 1186 ft | 82 kts | 225° |
| 2026-05-06 07:05 | -28.49863 | 150.34512 | 1023 ft | 80 kts | 220° |
| 2026-05-06 07:05 | -28.50246 | 150.34079 | 913 ft | 78 kts | 227° |
| 2026-05-06 07:06 | -28.50645 | 150.33658 | 847 ft | 80 kts | 221° |
| 2026-05-06 07:06 | -28.51053 | 150.33258 | 842 ft | 74 kts | 223° |
| 2026-05-06 07:06 | -28.51428 | 150.32858 | 812 ft | 74 kts | 226° |
| 2026-05-06 07:06 | -28.51811 | 150.32465 | 739 ft | 74 kts | 224° |
| 2026-05-06 07:07 | -28.52109 | 150.32164 | 720 ft | 42 kts | 225° |
| 2026-05-06 07:07 | -28.52222 | 150.32044 | 718 ft | 6 kts | 244° |
| 2026-05-06 07:07 | -28.52231 | 150.32035 | 715 ft | 4 kts | 89° |
| 2026-05-06 07:07 | -28.52142 | 150.32126 | 720 ft | 27 kts | 36° |
| 2026-05-06 07:08 | -28.51969 | 150.32302 | 719 ft | 31 kts | 42° |
| 2026-05-06 07:08 | -28.51941 | 150.32386 | 721 ft | 6 kts | 137° |
| 2026-05-06 07:08 | -28.51978 | 150.32429 | 720 ft | 12 kts | 133° |
| 2026-05-06 07:08 | -28.51993 | 150.32492 | 716 ft | 6 kts | 133° |
| 2026-05-06 07:09 | -28.51997 | 150.32497 | 716 ft | 0 kts | 134° |